Colonsay, Canada
Current Conditions -  °F | °C
As of 1:00 PM on Saturday 25 Oct 2014 (Local Time) from CYXE Reporting Station
Overcast Overcast  
Wind Chill: 44°   Ceiling: 24000
Heat Index: 46°   Visibility: 15mi
Dew Point: 27°   Wind: 5mph
Humidity: 46%   Direction: NA
Pressure: 30.04"   Gusts: NA
Location:  51.97°N, 105.87°W
Report Text: CYXE 251900Z VRB04KT 15SM FEW160 OVC240 08/M03 A3004 RMK AC2CI6 SLP197
Loading
Personal Weather Stations






























Interactive Weather Map
Tropical Storm Tracking
New forecast layout! Learn more

10-Day Weather Forecast

Advertisements
Track Severe Weather on mobile